createdAt,value
2018-02-10T00:01:58.012Z,32.27
2018-02-10T00:06:59.561Z,31.73
2018-02-10T00:12:00.898Z,30.23
2018-02-10T00:17:02.267Z,32.47
2018-02-10T00:22:04.420Z,35.33
2018-02-10T00:27:05.772Z,38.63
2018-02-10T00:32:07.878Z,33.83
2018-02-10T00:37:09.973Z,33.00
2018-02-10T00:42:12.047Z,33.70
2018-02-10T00:47:13.412Z,29.80
2018-02-10T00:52:14.786Z,31.50
2018-02-10T00:57:16.150Z,29.07
2018-02-10T01:02:18.220Z,29.67
2018-02-10T01:07:19.559Z,29.10
2018-02-10T01:12:21.619Z,29.27
2018-02-10T01:17:22.954Z,29.07
2018-02-10T01:22:24.349Z,30.53
2018-02-10T01:27:25.707Z,28.40
2018-02-10T01:32:27.057Z,28.27
2018-02-10T01:37:28.383Z,29.77
2018-02-10T01:42:29.780Z,27.30
2018-02-10T01:47:31.120Z,29.07
2018-02-10T01:52:32.515Z,32.00
2018-02-10T01:57:33.938Z,29.93
2018-02-10T02:02:35.281Z,28.27
2018-02-10T02:07:36.798Z,29.43
2018-02-10T02:12:38.215Z,28.93
2018-02-10T02:17:39.598Z,28.10
2018-02-10T02:22:40.994Z,26.80
2018-02-10T02:27:42.561Z,29.37
2018-02-10T02:32:43.939Z,29.27
2018-02-10T02:37:45.299Z,27.53
2018-02-10T02:42:46.659Z,28.90
2018-02-10T02:47:47.988Z,29.00
2018-02-10T02:52:50.069Z,28.70
2018-02-10T02:57:51.412Z,25.63
2018-02-10T03:02:52.777Z,27.23
2018-02-10T03:07:54.881Z,25.70
2018-02-10T03:12:56.211Z,27.47
2018-02-10T03:17:57.586Z,27.67
2018-02-10T03:22:58.898Z,26.23
2018-02-10T03:28:00.240Z,27.67
2018-02-10T03:33:01.586Z,27.00
2018-02-10T03:38:02.968Z,26.27
2018-02-10T03:43:04.378Z,28.60
2018-02-10T03:48:05.784Z,29.67
2018-02-10T03:53:07.261Z,28.40
2018-02-10T03:58:08.621Z,26.20
2018-02-10T04:03:09.950Z,26.90
2018-02-10T04:08:11.342Z,25.83
2018-02-10T04:13:12.759Z,25.73
2018-02-10T04:18:14.888Z,25.80
2018-02-10T04:23:16.277Z,26.00
2018-02-10T04:28:18.731Z,22.60
2018-02-10T04:33:20.716Z,23.33
2018-02-10T04:38:23.032Z,24.83
2018-02-10T04:43:25.354Z,24.93
2018-02-10T04:48:26.802Z,24.07
2018-02-10T04:53:28.136Z,24.37
2018-02-10T04:58:29.499Z,24.47
2018-02-10T05:03:30.895Z,23.67
2018-02-10T05:08:32.977Z,24.20
2018-02-10T05:13:34.440Z,24.67
2018-02-10T05:18:36.782Z,22.70
2018-02-10T05:23:39.022Z,24.30
2018-02-10T05:28:40.504Z,25.00
2018-02-10T05:33:45.414Z,23.67
2018-02-10T05:38:46.892Z,21.80
2018-02-10T05:43:49.102Z,24.53
2018-02-10T05:48:50.459Z,22.97
2018-02-10T05:53:51.819Z,24.93
2018-02-10T05:58:53.907Z,22.60
2018-02-10T06:03:55.318Z,22.33
2018-02-10T06:08:56.686Z,21.37
2018-02-10T06:13:58.080Z,22.03
2018-02-10T06:18:59.755Z,22.20
2018-02-10T06:24:01.107Z,23.53
2018-02-10T06:29:03.292Z,22.10
2018-02-10T06:34:04.972Z,23.27
2018-02-10T06:39:06.797Z,23.30
2018-02-10T06:44:10.728Z,22.97
2018-02-10T06:49:12.117Z,20.53
2018-02-10T06:54:14.207Z,20.57
2018-02-10T06:59:15.526Z,21.73
2018-02-10T07:04:16.903Z,21.27
2018-02-10T07:09:18.290Z,23.10
2018-02-10T07:14:19.826Z,21.20
2018-02-10T07:19:21.224Z,20.90
2018-02-10T07:24:22.741Z,20.70
2018-02-10T07:29:24.955Z,19.17
2018-02-10T07:34:26.314Z,19.40
2018-02-10T07:39:27.684Z,21.03
2018-02-10T07:44:29.046Z,20.50
2018-02-10T07:49:31.228Z,19.57
2018-02-10T07:54:33.528Z,19.83
2018-02-10T07:59:35.735Z,19.30
2018-02-10T08:04:37.082Z,20.43
2018-02-10T08:09:38.549Z,20.57
2018-02-10T08:14:40.677Z,21.53
2018-02-10T08:19:42.111Z,20.87
2018-02-10T08:24:43.418Z,21.80
2018-02-10T08:29:44.771Z,20.33
2018-02-10T08:34:46.155Z,20.07
2018-02-10T08:39:47.507Z,20.27
2018-02-10T08:44:48.856Z,22.57
2018-02-10T08:49:50.200Z,20.83
2018-02-10T08:54:52.303Z,20.20
2018-02-10T08:59:54.406Z,21.03
2018-02-10T09:04:55.748Z,21.23
2018-02-10T09:09:57.105Z,21.13
2018-02-10T09:14:58.474Z,20.40
2018-02-10T09:20:00.613Z,22.70
2018-02-10T09:25:03.618Z,21.33
2018-02-10T09:30:05.786Z,19.63
2018-02-10T09:35:07.166Z,22.10
2018-02-10T09:40:08.522Z,21.50
2018-02-10T09:45:09.848Z,21.13
2018-02-10T09:50:11.222Z,22.90
2018-02-10T09:55:12.595Z,21.77
2018-02-10T10:00:14.793Z,23.13
2018-02-10T10:05:18.294Z,22.30
2018-02-10T10:10:19.687Z,22.60
2018-02-10T10:15:21.069Z,23.00
2018-02-10T10:20:22.411Z,23.27
2018-02-10T10:25:24.166Z,22.83
2018-02-10T10:30:25.527Z,23.30
2018-02-10T10:35:26.859Z,22.70
2018-02-10T10:40:28.279Z,23.13
2018-02-10T10:45:29.639Z,24.20
2018-02-10T10:50:31.036Z,24.03
2018-02-10T10:55:32.563Z,23.77
2018-02-10T11:00:34.086Z,25.90
2018-02-10T11:05:36.268Z,25.83
2018-02-10T11:10:38.463Z,25.63
2018-02-10T11:15:39.827Z,23.50
2018-02-10T11:20:41.333Z,26.70
2018-02-10T11:25:42.702Z,25.80
2018-02-10T11:30:44.091Z,26.07
2018-02-10T11:35:45.566Z,24.53
2018-02-10T11:40:46.967Z,27.90
2018-02-10T11:45:48.313Z,27.30
2018-02-10T11:50:49.658Z,25.77
2018-02-10T11:55:51.059Z,27.20
2018-02-10T12:00:52.412Z,27.53
2018-02-10T12:05:53.797Z,28.20
2018-02-10T12:10:55.196Z,28.23
2018-02-10T12:15:56.554Z,29.10
2018-02-10T12:20:57.994Z,26.30
2018-02-10T12:25:59.311Z,28.33
2018-02-10T12:31:00.666Z,27.60
2018-02-10T12:36:02.024Z,28.00
2018-02-10T12:41:03.403Z,28.23
2018-02-10T12:46:04.716Z,27.90
2018-02-10T12:51:06.030Z,27.40
2018-02-10T12:56:08.114Z,27.77
2018-02-10T13:01:09.489Z,31.20
2018-02-10T13:06:10.944Z,28.30
2018-02-10T13:11:12.288Z,28.50
2018-02-10T13:16:13.791Z,28.00
2018-02-10T13:21:15.151Z,28.80
2018-02-10T13:26:16.487Z,28.50
2018-02-10T13:31:18.688Z,27.80
2018-02-10T13:36:20.034Z,26.97
2018-02-10T13:41:21.435Z,28.33
2018-02-10T13:46:22.849Z,27.77
2018-02-10T13:51:24.275Z,28.50
2018-02-10T13:56:25.894Z,27.90
2018-02-10T14:01:27.358Z,28.50
2018-02-10T14:06:28.738Z,27.67
2018-02-10T14:11:30.164Z,29.23
2018-02-10T14:16:31.510Z,26.50
2018-02-10T14:21:32.903Z,26.93
2018-02-10T14:26:34.246Z,29.00
2018-02-10T14:31:35.590Z,28.20
2018-02-10T14:36:36.915Z,28.63
2018-02-10T14:41:38.268Z,28.03
2018-02-10T14:46:39.635Z,27.47
2018-02-10T14:51:40.989Z,27.83
2018-02-10T14:56:42.375Z,28.90
2018-02-10T15:01:43.798Z,27.37
2018-02-10T15:06:45.288Z,26.13
2018-02-10T15:11:47.401Z,27.07
2018-02-10T15:16:48.846Z,27.30
2018-02-10T15:21:50.180Z,25.10
2018-02-10T15:26:51.562Z,27.67
2018-02-10T15:32:12.102Z,25.43
2018-02-10T15:37:14.278Z,25.20
2018-02-10T15:42:15.671Z,25.80
2018-02-10T15:47:17.013Z,26.17
2018-02-10T15:52:18.346Z,27.97
2018-02-10T15:57:19.680Z,30.07
2018-02-10T16:02:21.040Z,26.30
2018-02-10T16:07:22.367Z,25.67
2018-02-10T16:12:23.772Z,28.27
2018-02-10T16:17:25.158Z,28.07
2018-02-10T16:22:26.526Z,29.20
2018-02-10T16:27:28.673Z,28.17
2018-02-10T16:32:30.052Z,27.23
2018-02-10T16:37:31.409Z,29.17
2018-02-10T16:42:33.527Z,29.13
2018-02-10T16:47:34.882Z,25.70
2018-02-10T16:52:36.244Z,27.30
2018-02-10T16:57:37.570Z,27.90
2018-02-10T17:02:39.078Z,25.90
2018-02-10T17:07:41.134Z,26.60
2018-02-10T17:12:42.726Z,26.53
2018-02-10T17:17:44.124Z,25.77
2018-02-10T17:22:46.770Z,25.07
2018-02-10T17:27:48.090Z,25.87
2018-02-10T17:32:50.135Z,26.90
2018-02-10T17:37:51.494Z,25.43
2018-02-10T17:42:52.803Z,24.23
2018-02-10T17:47:54.162Z,25.47
2018-02-10T17:52:56.222Z,24.97
2018-02-10T17:58:00.399Z,24.80
2018-02-10T18:03:02.508Z,24.60
2018-02-10T18:08:03.848Z,22.70
2018-02-10T18:13:05.219Z,25.17
2018-02-10T18:18:06.658Z,22.97
2018-02-10T18:23:08.011Z,22.20
2018-02-10T18:28:09.396Z,25.13
2018-02-10T18:33:10.884Z,24.83
2018-02-10T18:38:12.237Z,25.80
2018-02-10T18:43:13.550Z,25.43
2018-02-10T18:48:15.662Z,26.70
2018-02-10T18:53:17.791Z,26.17
2018-02-10T18:58:19.178Z,25.77
2018-02-10T19:03:20.585Z,25.87
2018-02-10T19:08:21.918Z,26.60
2018-02-10T19:13:23.346Z,27.57
2018-02-10T19:18:24.698Z,25.07
2018-02-10T19:23:26.117Z,27.63
2018-02-10T19:28:28.224Z,26.17
2018-02-10T19:33:29.688Z,24.63
2018-02-10T19:38:31.116Z,27.90
2018-02-10T19:43:32.599Z,25.07
2018-02-10T19:48:34.700Z,27.07
2018-02-10T19:53:36.178Z,26.10
2018-02-10T19:58:37.558Z,25.70
2018-02-10T20:03:39.611Z,25.30
2018-02-10T20:08:40.932Z,27.50
2018-02-10T20:13:42.355Z,28.33
2018-02-10T20:18:43.734Z,27.67
2018-02-10T20:23:45.068Z,28.83
2018-02-10T20:28:46.435Z,28.10
2018-02-10T20:33:47.742Z,28.67
2018-02-10T20:38:49.258Z,30.23
2018-02-10T20:43:51.366Z,28.63
2018-02-10T20:48:57.014Z,30.30
2018-02-10T20:53:58.553Z,29.20
2018-02-10T20:59:00.038Z,28.87
2018-02-10T21:04:02.271Z,29.23
2018-02-10T21:09:04.638Z,28.83
2018-02-10T21:14:06.035Z,29.73
2018-02-10T21:19:07.400Z,30.23
2018-02-10T21:24:08.751Z,29.57
2018-02-10T21:29:10.168Z,29.70
2018-02-10T21:34:11.527Z,26.37
2018-02-10T21:39:12.906Z,26.07
2018-02-10T21:44:14.975Z,28.47
2018-02-10T21:49:16.327Z,26.00
2018-02-10T21:54:17.628Z,25.60
2018-02-10T21:59:19.008Z,23.90
2018-02-10T22:04:20.396Z,22.93
2018-02-10T22:09:21.758Z,22.77
2018-02-10T22:14:23.931Z,22.63
2018-02-10T22:19:25.318Z,21.90
2018-02-10T22:24:26.709Z,20.77
2018-02-10T22:29:28.076Z,21.17
2018-02-10T22:34:29.624Z,18.90
2018-02-10T22:39:31.180Z,20.50
2018-02-10T22:44:32.557Z,19.60
2018-02-10T22:49:33.906Z,19.30
2018-02-10T22:54:35.990Z,17.07
2018-02-10T22:59:37.355Z,18.23
2018-02-10T23:04:38.699Z,16.93
2018-02-10T23:09:40.869Z,18.50
2018-02-10T23:14:42.249Z,16.90
2018-02-10T23:19:43.616Z,15.83
2018-02-10T23:24:44.996Z,15.80
2018-02-10T23:29:46.335Z,15.37
2018-02-10T23:34:47.659Z,14.63
2018-02-10T23:39:49.746Z,15.50
2018-02-10T23:44:51.103Z,13.70
2018-02-10T23:49:53.237Z,14.87
2018-02-10T23:54:54.582Z,14.10
2018-02-10T23:59:55.942Z,13.27
